FDX1473 KMEM-KBOS
Flight info
| Callsign | FDX1473 |
|---|---|
| Flight time | 2h 32m |
| Altitude | 37000 |
| Route | CRSON7 HUMMS SIDAE Q29 JHW Q82 PONCT JFUND2 |
| Aircraft | A306/H-SDE3FGHIRWY/LB1 |
Departure
| Time | 2026-05-05 10:05 |
|---|---|
| Airport | Memphis International Airport (KMEM) |
Arrival
| Time | 2026-05-05 12:37 |
|---|---|
| Airport | Boston Logan International Airport (KBOS) |
| Time | Latitude | Longitude | Altitude | Speed | Heading |
|---|---|---|---|---|---|
| 2026-05-05 09:28 | 35.06176 | -89.95450 | 300 ft | 0 kts | 90° |
| 2026-05-05 09:51 | 35.06176 | -89.95462 | 302 ft | 3 kts | 91° |
| 2026-05-05 09:51 | 35.06177 | -89.95487 | 301 ft | 3 kts | 91° |
| 2026-05-05 09:52 | 35.06177 | -89.95511 | 300 ft | 3 kts | 92° |
| 2026-05-05 09:52 | 35.06178 | -89.95536 | 299 ft | 3 kts | 92° |
| 2026-05-05 09:52 | 35.06179 | -89.95554 | 300 ft | 1 kts | 92° |
| 2026-05-05 09:52 | 35.06179 | -89.95559 | 300 ft | 0 kts | 92° |
| 2026-05-05 09:55 | 35.06178 | -89.95557 | 300 ft | 0 kts | 95° |
| 2026-05-05 09:55 | 35.06173 | -89.95553 | 300 ft | 1 kts | 139° |
| 2026-05-05 09:55 | 35.06159 | -89.95547 | 304 ft | 3 kts | 159° |
| 2026-05-05 09:56 | 35.06130 | -89.95539 | 304 ft | 7 kts | 173° |
| 2026-05-05 09:56 | 35.06082 | -89.95538 | 305 ft | 6 kts | 181° |
| 2026-05-05 09:56 | 35.06048 | -89.95539 | 307 ft | 4 kts | 181° |
| 2026-05-05 09:56 | 35.06026 | -89.95540 | 307 ft | 3 kts | 181° |
| 2026-05-05 09:57 | 35.06012 | -89.95540 | 308 ft | 2 kts | 181° |
| 2026-05-05 09:57 | 35.05978 | -89.95541 | 308 ft | 7 kts | 182° |
| 2026-05-05 09:57 | 35.05913 | -89.95554 | 309 ft | 11 kts | 197° |
| 2026-05-05 09:57 | 35.05843 | -89.95587 | 309 ft | 11 kts | 204° |
| 2026-05-05 09:58 | 35.05763 | -89.95618 | 309 ft | 15 kts | 187° |
| 2026-05-05 09:58 | 35.05659 | -89.95627 | 309 ft | 14 kts | 190° |
| 2026-05-05 09:58 | 35.05618 | -89.95719 | 308 ft | 13 kts | 269° |
| 2026-05-05 09:58 | 35.05621 | -89.95838 | 311 ft | 15 kts | 272° |
| 2026-05-05 09:59 | 35.05625 | -89.95971 | 306 ft | 17 kts | 271° |
| 2026-05-05 09:59 | 35.05629 | -89.96127 | 303 ft | 20 kts | 272° |
| 2026-05-05 09:59 | 35.05634 | -89.96310 | 302 ft | 23 kts | 271° |
| 2026-05-05 09:59 | 35.05638 | -89.96517 | 292 ft | 26 kts | 272° |
| 2026-05-05 10:00 | 35.05643 | -89.96746 | 287 ft | 28 kts | 270° |
| 2026-05-05 10:00 | 35.05651 | -89.96988 | 284 ft | 29 kts | 271° |
| 2026-05-05 10:00 | 35.05660 | -89.97231 | 284 ft | 29 kts | 272° |
| 2026-05-05 10:00 | 35.05664 | -89.97474 | 283 ft | 29 kts | 272° |
| 2026-05-05 10:01 | 35.05674 | -89.97715 | 285 ft | 29 kts | 274° |
| 2026-05-05 10:01 | 35.05680 | -89.97975 | 279 ft | 31 kts | 272° |
| 2026-05-05 10:01 | 35.05688 | -89.98250 | 273 ft | 34 kts | 271° |
| 2026-05-05 10:01 | 35.05690 | -89.98457 | 265 ft | 17 kts | 260° |
| 2026-05-05 10:02 | 35.05603 | -89.98509 | 269 ft | 15 kts | 180° |
| 2026-05-05 10:02 | 35.05485 | -89.98509 | 277 ft | 19 kts | 181° |
| 2026-05-05 10:02 | 35.05351 | -89.98511 | 294 ft | 17 kts | 181° |
| 2026-05-05 10:02 | 35.05226 | -89.98513 | 299 ft | 22 kts | 181° |
| 2026-05-05 10:03 | 35.05064 | -89.98546 | 304 ft | 26 kts | 203° |
| 2026-05-05 10:03 | 35.04928 | -89.98657 | 310 ft | 13 kts | 256° |
| 2026-05-05 10:03 | 35.04893 | -89.98742 | 309 ft | 11 kts | 197° |
| 2026-05-05 10:03 | 35.04858 | -89.98743 | 309 ft | 1 kts | 178° |
| 2026-05-05 10:04 | 35.04855 | -89.98743 | 309 ft | 0 kts | 178° |
| 2026-05-05 10:04 | 35.04854 | -89.98743 | 309 ft | 0 kts | 178° |
| 2026-05-05 10:04 | 35.04842 | -89.98743 | 309 ft | 7 kts | 178° |
| 2026-05-05 10:04 | 35.04640 | -89.98738 | 308 ft | 68 kts | 179° |
| 2026-05-05 10:05 | 35.03874 | -89.98721 | 316 ft | 148 kts | 179° |
| 2026-05-05 10:05 | 35.02780 | -89.98681 | 1225 ft | 158 kts | 182° |
| 2026-05-05 10:05 | 35.01682 | -89.98620 | 2531 ft | 163 kts | 184° |
| 2026-05-05 10:05 | 35.00446 | -89.98567 | 3348 ft | 195 kts | 184° |
| 2026-05-05 10:06 | 34.98947 | -89.98463 | 3886 ft | 236 kts | 176° |
| 2026-05-05 10:06 | 34.97315 | -89.97749 | 4568 ft | 260 kts | 158° |
| 2026-05-05 10:06 | 34.95696 | -89.96655 | 5473 ft | 270 kts | 154° |
| 2026-05-05 10:06 | 34.94173 | -89.95288 | 6758 ft | 278 kts | 139° |
| 2026-05-05 10:07 | 34.93113 | -89.93265 | 7984 ft | 293 kts | 112° |
| 2026-05-05 10:07 | 34.92766 | -89.90815 | 9229 ft | 302 kts | 95° |
| 2026-05-05 10:07 | 34.92659 | -89.88200 | 10390 ft | 310 kts | 93° |
| 2026-05-05 10:07 | 34.92633 | -89.85543 | 11460 ft | 317 kts | 86° |
| 2026-05-05 10:08 | 34.93124 | -89.82945 | 12504 ft | 322 kts | 65° |
| 2026-05-05 10:08 | 34.94170 | -89.80516 | 13588 ft | 326 kts | 57° |
| 2026-05-05 10:08 | 34.95460 | -89.78226 | 14519 ft | 329 kts | 45° |
| 2026-05-05 10:08 | 34.97191 | -89.76458 | 15491 ft | 324 kts | 25° |
| 2026-05-05 10:09 | 34.99266 | -89.75485 | 16482 ft | 317 kts | 6° |
| 2026-05-05 10:09 | 35.01439 | -89.75304 | 17474 ft | 313 kts | 354° |
| 2026-05-05 10:09 | 35.03623 | -89.75402 | 18400 ft | 315 kts | 352° |
| 2026-05-05 10:09 | 35.05825 | -89.75536 | 19200 ft | 319 kts | 351° |
| 2026-05-05 10:10 | 35.08063 | -89.75666 | 19968 ft | 324 kts | 351° |
| 2026-05-05 10:10 | 35.10333 | -89.75788 | 20745 ft | 329 kts | 351° |
| 2026-05-05 10:10 | 35.12634 | -89.75915 | 21531 ft | 333 kts | 351° |
| 2026-05-05 10:10 | 35.14962 | -89.76046 | 22330 ft | 337 kts | 350° |
| 2026-05-05 10:11 | 35.17312 | -89.76177 | 23094 ft | 341 kts | 350° |
| 2026-05-05 10:11 | 35.19702 | -89.76309 | 23784 ft | 345 kts | 349° |
| 2026-05-05 10:11 | 35.22103 | -89.76440 | 24462 ft | 347 kts | 349° |
| 2026-05-05 10:11 | 35.24517 | -89.76570 | 25180 ft | 348 kts | 349° |
| 2026-05-05 10:12 | 35.26950 | -89.76582 | 25956 ft | 351 kts | 354° |
| 2026-05-05 10:12 | 35.29375 | -89.76238 | 26865 ft | 353 kts | 0° |
| 2026-05-05 10:12 | 35.31760 | -89.75475 | 27751 ft | 357 kts | 8° |
| 2026-05-05 10:12 | 35.34072 | -89.74274 | 28583 ft | 365 kts | 16° |
| 2026-05-05 10:13 | 35.36294 | -89.72742 | 29385 ft | 367 kts | 19° |
| 2026-05-05 10:13 | 35.38480 | -89.71134 | 30119 ft | 366 kts | 19° |
| 2026-05-05 10:13 | 35.40645 | -89.69530 | 30797 ft | 362 kts | 18° |
| 2026-05-05 10:13 | 35.42783 | -89.67946 | 31511 ft | 357 kts | 17° |
| 2026-05-05 10:14 | 35.44901 | -89.66381 | 32221 ft | 352 kts | 16° |
| 2026-05-05 10:14 | 35.46988 | -89.64843 | 32909 ft | 348 kts | 15° |
| 2026-05-05 10:14 | 35.49052 | -89.63324 | 33556 ft | 344 kts | 15° |
| 2026-05-05 10:14 | 35.51097 | -89.61820 | 34134 ft | 341 kts | 14° |
| 2026-05-05 10:15 | 35.53124 | -89.60330 | 34652 ft | 338 kts | 13° |
| 2026-05-05 10:15 | 35.55139 | -89.58848 | 35143 ft | 336 kts | 13° |
| 2026-05-05 10:15 | 35.57132 | -89.57381 | 35626 ft | 333 kts | 12° |
| 2026-05-05 10:15 | 35.59109 | -89.55924 | 36099 ft | 330 kts | 11° |
| 2026-05-05 10:16 | 35.61048 | -89.54491 | 36548 ft | 328 kts | 11° |
| 2026-05-05 10:16 | 35.63006 | -89.53029 | 36827 ft | 329 kts | 11° |
| 2026-05-05 10:16 | 35.66900 | -89.50104 | 36860 ft | 327 kts | 11° |
| 2026-05-05 10:17 | 35.70693 | -89.47275 | 36864 ft | 326 kts | 10° |
| 2026-05-05 10:17 | 35.74570 | -89.44389 | 36859 ft | 325 kts | 10° |
| 2026-05-05 10:18 | 35.78439 | -89.41506 | 36854 ft | 325 kts | 10° |
| 2026-05-05 10:18 | 35.82307 | -89.38618 | 36853 ft | 325 kts | 10° |
| 2026-05-05 10:19 | 35.86175 | -89.35725 | 36852 ft | 325 kts | 10° |
| 2026-05-05 10:19 | 35.90037 | -89.32830 | 36862 ft | 325 kts | 10° |
| 2026-05-05 10:20 | 35.93902 | -89.29931 | 36867 ft | 325 kts | 10° |
| 2026-05-05 10:20 | 35.97762 | -89.27033 | 36856 ft | 325 kts | 11° |
| 2026-05-05 10:21 | 36.01614 | -89.24136 | 36856 ft | 325 kts | 10° |
| 2026-05-05 10:21 | 36.05447 | -89.21252 | 36858 ft | 325 kts | 10° |
| 2026-05-05 10:22 | 36.09328 | -89.18326 | 36856 ft | 324 kts | 10° |
| 2026-05-05 10:22 | 36.13150 | -89.15441 | 36860 ft | 324 kts | 10° |
| 2026-05-05 10:23 | 36.17000 | -89.12536 | 36865 ft | 327 kts | 10° |
| 2026-05-05 10:23 | 36.18979 | -89.11065 | 36872 ft | 338 kts | 10° |
| 2026-05-05 10:23 | 36.21032 | -89.09547 | 36871 ft | 350 kts | 11° |
| 2026-05-05 10:24 | 36.23156 | -89.07971 | 36872 ft | 362 kts | 12° |
| 2026-05-05 10:24 | 36.25348 | -89.06331 | 36871 ft | 374 kts | 12° |
| 2026-05-05 10:24 | 36.27597 | -89.04633 | 36865 ft | 385 kts | 13° |
| 2026-05-05 10:24 | 36.29911 | -89.02876 | 36870 ft | 395 kts | 13° |
| 2026-05-05 10:25 | 36.34695 | -88.99174 | 36865 ft | 422 kts | 18° |
| 2026-05-05 10:25 | 36.37049 | -88.96816 | 36864 ft | 443 kts | 24° |
| 2026-05-05 10:25 | 36.39389 | -88.94245 | 36864 ft | 455 kts | 26° |
| 2026-05-05 10:26 | 36.44091 | -88.88796 | 36862 ft | 466 kts | 27° |
| 2026-05-05 10:26 | 36.48784 | -88.83236 | 36860 ft | 466 kts | 27° |
| 2026-05-05 10:27 | 36.53494 | -88.77697 | 36862 ft | 465 kts | 27° |
| 2026-05-05 10:27 | 36.58212 | -88.72192 | 36863 ft | 465 kts | 27° |
| 2026-05-05 10:28 | 36.62939 | -88.66678 | 36877 ft | 466 kts | 27° |
| 2026-05-05 10:28 | 36.67664 | -88.61155 | 36878 ft | 466 kts | 27° |
| 2026-05-05 10:29 | 36.72287 | -88.55740 | 36885 ft | 466 kts | 27° |
| 2026-05-05 10:29 | 36.77020 | -88.50188 | 36886 ft | 467 kts | 27° |
| 2026-05-05 10:30 | 36.80950 | -88.45570 | 36885 ft | 468 kts | 27° |
| 2026-05-05 10:30 | 36.85690 | -88.39994 | 36884 ft | 468 kts | 27° |
| 2026-05-05 10:31 | 36.91200 | -88.33500 | 36885 ft | 469 kts | 27° |
| 2026-05-05 10:31 | 36.95948 | -88.27890 | 36869 ft | 470 kts | 27° |
| 2026-05-05 10:32 | 36.99924 | -88.23184 | 36867 ft | 470 kts | 27° |
| 2026-05-05 10:32 | 37.04650 | -88.17582 | 36865 ft | 471 kts | 27° |
| 2026-05-05 10:33 | 37.09402 | -88.11937 | 36862 ft | 471 kts | 27° |
| 2026-05-05 10:33 | 37.14160 | -88.06277 | 36864 ft | 471 kts | 27° |
| 2026-05-05 10:34 | 37.18912 | -88.00614 | 36863 ft | 472 kts | 28° |
| 2026-05-05 10:34 | 37.23667 | -87.94938 | 36869 ft | 472 kts | 28° |
| 2026-05-05 10:35 | 37.28422 | -87.89248 | 36867 ft | 472 kts | 28° |
| 2026-05-05 10:35 | 37.33173 | -87.83552 | 36866 ft | 473 kts | 28° |
| 2026-05-05 10:36 | 37.37849 | -87.77656 | 36865 ft | 478 kts | 31° |
| 2026-05-05 10:36 | 37.42473 | -87.71630 | 36859 ft | 479 kts | 31° |
| 2026-05-05 10:37 | 37.47100 | -87.65590 | 36865 ft | 479 kts | 31° |
| 2026-05-05 10:37 | 37.51733 | -87.59564 | 36860 ft | 479 kts | 31° |
| 2026-05-05 10:38 | 37.56371 | -87.53538 | 36856 ft | 479 kts | 31° |
| 2026-05-05 10:38 | 37.60987 | -87.47533 | 36858 ft | 480 kts | 31° |
| 2026-05-05 10:39 | 37.65618 | -87.41493 | 36871 ft | 480 kts | 32° |
| 2026-05-05 10:39 | 37.70177 | -87.35534 | 36878 ft | 480 kts | 32° |
| 2026-05-05 10:40 | 37.74759 | -87.29536 | 36878 ft | 480 kts | 32° |
| 2026-05-05 10:40 | 37.79390 | -87.23462 | 36881 ft | 480 kts | 32° |
| 2026-05-05 10:41 | 37.84020 | -87.17378 | 36876 ft | 480 kts | 33° |
| 2026-05-05 10:41 | 37.88650 | -87.11282 | 36872 ft | 480 kts | 33° |
| 2026-05-05 10:42 | 37.95594 | -87.02115 | 36867 ft | 480 kts | 33° |
| 2026-05-05 10:43 | 38.00214 | -86.96002 | 36876 ft | 481 kts | 33° |
| 2026-05-05 10:43 | 38.04838 | -86.89872 | 36874 ft | 481 kts | 34° |
| 2026-05-05 10:44 | 38.09457 | -86.83736 | 36878 ft | 481 kts | 34° |
| 2026-05-05 10:44 | 38.14074 | -86.77590 | 36881 ft | 481 kts | 34° |
| 2026-05-05 10:45 | 38.18667 | -86.71466 | 36877 ft | 481 kts | 34° |
| 2026-05-05 10:45 | 38.23281 | -86.65302 | 36869 ft | 481 kts | 34° |
| 2026-05-05 10:46 | 38.27898 | -86.59122 | 36886 ft | 482 kts | 34° |
| 2026-05-05 10:46 | 38.32507 | -86.52937 | 36894 ft | 482 kts | 35° |
| 2026-05-05 10:47 | 38.37090 | -86.46779 | 36898 ft | 481 kts | 35° |
| 2026-05-05 10:47 | 38.41691 | -86.40583 | 36894 ft | 481 kts | 35° |
| 2026-05-05 10:48 | 38.46294 | -86.34371 | 36879 ft | 482 kts | 35° |
| 2026-05-05 10:48 | 38.50888 | -86.28160 | 36874 ft | 482 kts | 35° |
| 2026-05-05 10:49 | 38.55491 | -86.21924 | 36862 ft | 482 kts | 35° |
| 2026-05-05 10:49 | 38.60086 | -86.15687 | 36867 ft | 482 kts | 36° |
| 2026-05-05 10:50 | 38.64680 | -86.09437 | 36852 ft | 482 kts | 36° |
| 2026-05-05 10:50 | 38.69274 | -86.03176 | 36859 ft | 483 kts | 36° |
| 2026-05-05 10:51 | 38.73869 | -85.96899 | 36854 ft | 483 kts | 36° |
| 2026-05-05 10:51 | 38.78465 | -85.90610 | 36860 ft | 483 kts | 36° |
| 2026-05-05 10:52 | 38.83002 | -85.84389 | 36873 ft | 483 kts | 36° |
| 2026-05-05 10:52 | 38.87596 | -85.78077 | 36879 ft | 484 kts | 36° |
| 2026-05-05 10:53 | 38.92187 | -85.71757 | 36885 ft | 484 kts | 36° |
| 2026-05-05 10:53 | 38.96754 | -85.65457 | 36887 ft | 485 kts | 37° |
| 2026-05-05 10:54 | 39.01346 | -85.59108 | 36881 ft | 486 kts | 37° |
| 2026-05-05 10:54 | 39.05949 | -85.52733 | 36875 ft | 486 kts | 37° |
| 2026-05-05 10:55 | 39.10547 | -85.46349 | 36854 ft | 487 kts | 37° |
| 2026-05-05 10:55 | 39.15117 | -85.39995 | 36848 ft | 487 kts | 37° |
| 2026-05-05 10:56 | 39.19723 | -85.33580 | 36843 ft | 488 kts | 37° |
| 2026-05-05 10:56 | 39.24331 | -85.27145 | 36843 ft | 488 kts | 38° |
| 2026-05-05 10:57 | 39.28933 | -85.20699 | 36842 ft | 489 kts | 38° |
| 2026-05-05 10:57 | 39.33541 | -85.14229 | 36840 ft | 489 kts | 38° |
| 2026-05-05 10:58 | 39.38148 | -85.07749 | 36844 ft | 490 kts | 38° |
| 2026-05-05 10:58 | 39.42757 | -85.01254 | 36855 ft | 490 kts | 39° |
| 2026-05-05 10:59 | 39.47366 | -84.94748 | 36851 ft | 490 kts | 39° |
| 2026-05-05 10:59 | 39.51971 | -84.88233 | 36850 ft | 491 kts | 39° |
| 2026-05-05 11:00 | 39.56577 | -84.81707 | 36841 ft | 491 kts | 39° |
| 2026-05-05 11:00 | 39.61189 | -84.75156 | 36838 ft | 491 kts | 39° |
| 2026-05-05 11:01 | 39.65796 | -84.68600 | 36834 ft | 492 kts | 40° |
| 2026-05-05 11:01 | 39.70325 | -84.62139 | 36831 ft | 492 kts | 40° |
| 2026-05-05 11:02 | 39.74929 | -84.55558 | 36839 ft | 493 kts | 40° |
| 2026-05-05 11:02 | 39.79539 | -84.48953 | 36817 ft | 493 kts | 40° |
| 2026-05-05 11:03 | 39.84150 | -84.42333 | 36818 ft | 494 kts | 40° |
| 2026-05-05 11:03 | 39.88765 | -84.35692 | 36804 ft | 494 kts | 41° |
| 2026-05-05 11:04 | 39.93413 | -84.29107 | 36801 ft | 492 kts | 38° |
| 2026-05-05 11:04 | 39.98291 | -84.22874 | 36795 ft | 491 kts | 36° |
| 2026-05-05 11:05 | 40.03209 | -84.16770 | 36804 ft | 491 kts | 36° |
| 2026-05-05 11:05 | 40.08143 | -84.10589 | 36820 ft | 492 kts | 37° |
| 2026-05-05 11:06 | 40.13065 | -84.04352 | 36807 ft | 493 kts | 37° |
| 2026-05-05 11:06 | 40.17971 | -83.98103 | 36800 ft | 493 kts | 37° |
| 2026-05-05 11:07 | 40.22881 | -83.91836 | 36797 ft | 493 kts | 37° |
| 2026-05-05 11:07 | 40.27785 | -83.85567 | 36795 ft | 493 kts | 37° |
| 2026-05-05 11:08 | 40.32687 | -83.79287 | 36795 ft | 493 kts | 37° |
| 2026-05-05 11:08 | 40.37586 | -83.72999 | 36797 ft | 493 kts | 38° |
| 2026-05-05 11:09 | 40.42455 | -83.66734 | 36794 ft | 493 kts | 38° |
| 2026-05-05 11:09 | 40.47348 | -83.60427 | 36787 ft | 493 kts | 38° |
| 2026-05-05 11:10 | 40.52236 | -83.54113 | 36786 ft | 493 kts | 38° |
| 2026-05-05 11:10 | 40.57122 | -83.47785 | 36778 ft | 493 kts | 38° |
| 2026-05-05 11:11 | 40.62015 | -83.41437 | 36777 ft | 493 kts | 38° |
| 2026-05-05 11:11 | 40.66898 | -83.35087 | 36772 ft | 493 kts | 38° |
| 2026-05-05 11:12 | 40.71525 | -83.28342 | 36775 ft | 499 kts | 45° |
| 2026-05-05 11:12 | 40.75810 | -83.21202 | 36770 ft | 500 kts | 47° |
| 2026-05-05 11:13 | 40.80057 | -83.13942 | 36773 ft | 500 kts | 47° |
| 2026-05-05 11:13 | 40.84298 | -83.06668 | 36772 ft | 500 kts | 47° |
| 2026-05-05 11:14 | 40.88537 | -82.99404 | 36775 ft | 499 kts | 47° |
| 2026-05-05 11:14 | 40.92779 | -82.92131 | 36775 ft | 499 kts | 47° |
| 2026-05-05 11:15 | 40.97016 | -82.84852 | 36768 ft | 499 kts | 47° |
| 2026-05-05 11:15 | 41.01246 | -82.77565 | 36769 ft | 499 kts | 48° |
| 2026-05-05 11:16 | 41.05471 | -82.70271 | 36775 ft | 499 kts | 48° |
| 2026-05-05 11:16 | 41.09696 | -82.62957 | 36775 ft | 500 kts | 48° |
| 2026-05-05 11:17 | 41.13837 | -82.55540 | 36761 ft | 504 kts | 54° |
| 2026-05-05 11:17 | 41.17320 | -82.47447 | 36758 ft | 506 kts | 58° |
| 2026-05-05 11:18 | 41.20660 | -82.39213 | 36753 ft | 506 kts | 59° |
| 2026-05-05 11:18 | 41.23961 | -82.30961 | 36753 ft | 506 kts | 59° |
| 2026-05-05 11:19 | 41.27273 | -82.22691 | 36756 ft | 506 kts | 59° |
| 2026-05-05 11:19 | 41.30564 | -82.14479 | 36755 ft | 506 kts | 59° |
| 2026-05-05 11:20 | 41.33872 | -82.06213 | 36757 ft | 506 kts | 59° |
| 2026-05-05 11:20 | 41.36858 | -81.97698 | 36747 ft | 508 kts | 64° |
| 2026-05-05 11:21 | 41.39569 | -81.88998 | 36749 ft | 508 kts | 65° |
| 2026-05-05 11:21 | 41.41809 | -81.81766 | 36747 ft | 508 kts | 65° |
| 2026-05-05 11:22 | 41.44538 | -81.73084 | 36740 ft | 507 kts | 65° |
| 2026-05-05 11:22 | 41.47281 | -81.64424 | 36738 ft | 507 kts | 65° |
| 2026-05-05 11:23 | 41.50022 | -81.55767 | 36749 ft | 507 kts | 65° |
| 2026-05-05 11:23 | 41.52755 | -81.47099 | 36749 ft | 506 kts | 65° |
| 2026-05-05 11:24 | 41.55478 | -81.38431 | 36747 ft | 506 kts | 65° |
| 2026-05-05 11:24 | 41.58191 | -81.29761 | 36735 ft | 506 kts | 65° |
| 2026-05-05 11:25 | 41.60899 | -81.21082 | 36737 ft | 505 kts | 65° |
| 2026-05-05 11:25 | 41.63594 | -81.12415 | 36730 ft | 505 kts | 65° |
| 2026-05-05 11:26 | 41.66285 | -81.03732 | 36738 ft | 505 kts | 65° |
| 2026-05-05 11:26 | 41.68972 | -80.95037 | 36746 ft | 505 kts | 65° |
| 2026-05-05 11:27 | 41.71647 | -80.86353 | 36748 ft | 505 kts | 65° |
| 2026-05-05 11:27 | 41.74301 | -80.77706 | 36749 ft | 505 kts | 66° |
| 2026-05-05 11:28 | 41.76969 | -80.68985 | 36745 ft | 506 kts | 66° |
| 2026-05-05 11:28 | 41.79625 | -80.60273 | 36754 ft | 505 kts | 66° |
| 2026-05-05 11:29 | 41.82152 | -80.51468 | 36739 ft | 506 kts | 68° |
| 2026-05-05 11:29 | 41.84529 | -80.42600 | 36727 ft | 506 kts | 69° |
| 2026-05-05 11:30 | 41.86893 | -80.33721 | 36710 ft | 505 kts | 69° |
| 2026-05-05 11:30 | 41.89271 | -80.24842 | 36711 ft | 505 kts | 69° |
| 2026-05-05 11:31 | 41.91649 | -80.15972 | 36711 ft | 505 kts | 69° |
| 2026-05-05 11:31 | 41.94022 | -80.07101 | 36720 ft | 504 kts | 69° |
| 2026-05-05 11:32 | 41.96385 | -79.98231 | 36714 ft | 504 kts | 69° |
| 2026-05-05 11:32 | 41.98740 | -79.89360 | 36714 ft | 504 kts | 69° |
| 2026-05-05 11:33 | 42.01084 | -79.80489 | 36719 ft | 503 kts | 69° |
| 2026-05-05 11:33 | 42.03421 | -79.71617 | 36719 ft | 503 kts | 69° |
| 2026-05-05 11:34 | 42.05749 | -79.62750 | 36738 ft | 502 kts | 69° |
| 2026-05-05 11:34 | 42.08068 | -79.53880 | 36747 ft | 502 kts | 69° |
| 2026-05-05 11:35 | 42.10380 | -79.45008 | 36757 ft | 502 kts | 69° |
| 2026-05-05 11:35 | 42.12682 | -79.36136 | 36767 ft | 502 kts | 70° |
| 2026-05-05 11:36 | 42.14960 | -79.27328 | 36768 ft | 501 kts | 70° |
| 2026-05-05 11:36 | 42.17247 | -79.18452 | 36767 ft | 501 kts | 70° |
| 2026-05-05 11:37 | 42.19158 | -79.09436 | 36758 ft | 501 kts | 78° |
| 2026-05-05 11:37 | 42.20448 | -79.00202 | 36748 ft | 501 kts | 80° |
| 2026-05-05 11:38 | 42.21618 | -78.90944 | 36736 ft | 500 kts | 81° |
| 2026-05-05 11:38 | 42.22770 | -78.81691 | 36729 ft | 500 kts | 81° |
| 2026-05-05 11:39 | 42.23927 | -78.72443 | 36746 ft | 500 kts | 81° |
| 2026-05-05 11:39 | 42.25082 | -78.63212 | 36757 ft | 499 kts | 80° |
| 2026-05-05 11:40 | 42.26232 | -78.53981 | 36769 ft | 498 kts | 80° |
| 2026-05-05 11:40 | 42.27371 | -78.44766 | 36777 ft | 498 kts | 80° |
| 2026-05-05 11:41 | 42.28501 | -78.35552 | 36773 ft | 497 kts | 81° |
| 2026-05-05 11:41 | 42.29624 | -78.26332 | 36774 ft | 497 kts | 81° |
| 2026-05-05 11:42 | 42.30740 | -78.17118 | 36768 ft | 497 kts | 81° |
| 2026-05-05 11:42 | 42.31848 | -78.07893 | 36778 ft | 497 kts | 81° |
| 2026-05-05 11:43 | 42.32947 | -77.98686 | 36778 ft | 497 kts | 81° |
| 2026-05-05 11:43 | 42.34032 | -77.89524 | 36779 ft | 497 kts | 81° |
| 2026-05-05 11:44 | 42.35118 | -77.80296 | 36753 ft | 497 kts | 81° |
| 2026-05-05 11:44 | 42.36196 | -77.71064 | 36747 ft | 497 kts | 81° |
| 2026-05-05 11:45 | 42.37268 | -77.61821 | 36753 ft | 498 kts | 81° |
| 2026-05-05 11:45 | 42.38335 | -77.52558 | 36746 ft | 498 kts | 81° |
| 2026-05-05 11:46 | 42.39384 | -77.43382 | 36751 ft | 498 kts | 81° |
| 2026-05-05 11:46 | 42.40435 | -77.34114 | 36754 ft | 498 kts | 81° |
| 2026-05-05 11:47 | 42.41479 | -77.24849 | 36759 ft | 498 kts | 82° |
| 2026-05-05 11:47 | 42.42514 | -77.15590 | 36758 ft | 498 kts | 82° |
| 2026-05-05 11:48 | 42.44052 | -77.01695 | 36756 ft | 497 kts | 82° |
| 2026-05-05 11:48 | 42.45064 | -76.92432 | 36757 ft | 497 kts | 82° |
| 2026-05-05 11:49 | 42.46066 | -76.83175 | 36757 ft | 497 kts | 82° |
| 2026-05-05 11:49 | 42.47062 | -76.73913 | 36780 ft | 497 kts | 82° |
| 2026-05-05 11:50 | 42.48057 | -76.64650 | 36783 ft | 497 kts | 82° |
| 2026-05-05 11:50 | 42.49037 | -76.55448 | 36794 ft | 496 kts | 82° |
| 2026-05-05 11:51 | 42.50015 | -76.46205 | 36793 ft | 496 kts | 82° |
| 2026-05-05 11:51 | 42.50985 | -76.36962 | 36793 ft | 495 kts | 82° |
| 2026-05-05 11:52 | 42.51947 | -76.27725 | 36788 ft | 494 kts | 82° |
| 2026-05-05 11:52 | 42.52894 | -76.18502 | 36784 ft | 493 kts | 83° |
| 2026-05-05 11:53 | 42.53831 | -76.09293 | 36781 ft | 493 kts | 83° |
| 2026-05-05 11:53 | 42.54762 | -76.00080 | 36774 ft | 493 kts | 83° |
| 2026-05-05 11:54 | 42.55686 | -75.90868 | 36789 ft | 492 kts | 83° |
| 2026-05-05 11:54 | 42.56601 | -75.81661 | 36800 ft | 492 kts | 83° |
| 2026-05-05 11:55 | 42.57509 | -75.72464 | 36814 ft | 492 kts | 83° |
| 2026-05-05 11:55 | 42.58405 | -75.63315 | 36823 ft | 492 kts | 83° |
| 2026-05-05 11:56 | 42.59301 | -75.54106 | 36816 ft | 492 kts | 83° |
| 2026-05-05 11:56 | 42.60190 | -75.44896 | 36821 ft | 492 kts | 83° |
| 2026-05-05 11:57 | 42.61069 | -75.35697 | 36815 ft | 492 kts | 83° |
| 2026-05-05 11:57 | 42.61942 | -75.26485 | 36815 ft | 492 kts | 83° |
| 2026-05-05 11:58 | 42.62806 | -75.17289 | 36805 ft | 491 kts | 83° |
| 2026-05-05 11:58 | 42.63664 | -75.08082 | 36791 ft | 491 kts | 83° |
| 2026-05-05 11:59 | 42.64512 | -74.98892 | 36791 ft | 491 kts | 83° |
| 2026-05-05 11:59 | 42.65354 | -74.89687 | 36792 ft | 491 kts | 83° |
| 2026-05-05 12:00 | 42.66187 | -74.80493 | 36795 ft | 491 kts | 83° |
| 2026-05-05 12:00 | 42.67014 | -74.71288 | 36792 ft | 491 kts | 83° |
| 2026-05-05 12:01 | 42.67834 | -74.62080 | 36791 ft | 491 kts | 83° |
| 2026-05-05 12:01 | 42.68647 | -74.52876 | 36789 ft | 491 kts | 83° |
| 2026-05-05 12:02 | 42.69452 | -74.43666 | 36785 ft | 491 kts | 83° |
| 2026-05-05 12:02 | 42.70230 | -74.34671 | 36792 ft | 491 kts | 83° |
| 2026-05-05 12:03 | 42.71022 | -74.25437 | 36803 ft | 491 kts | 83° |
| 2026-05-05 12:03 | 42.71804 | -74.16216 | 36820 ft | 491 kts | 83° |
| 2026-05-05 12:04 | 42.72575 | -74.07049 | 36823 ft | 491 kts | 83° |
| 2026-05-05 12:04 | 42.73343 | -73.97823 | 36831 ft | 491 kts | 83° |
| 2026-05-05 12:05 | 42.74104 | -73.88591 | 36838 ft | 491 kts | 83° |
| 2026-05-05 12:05 | 42.74435 | -73.79338 | 36851 ft | 490 kts | 97° |
| 2026-05-05 12:06 | 42.73835 | -73.70108 | 36837 ft | 490 kts | 96° |
| 2026-05-05 12:06 | 42.73195 | -73.60893 | 36834 ft | 490 kts | 96° |
| 2026-05-05 12:07 | 42.72524 | -73.51677 | 36815 ft | 490 kts | 96° |
| 2026-05-05 12:07 | 42.71838 | -73.42456 | 36846 ft | 490 kts | 97° |
| 2026-05-05 12:08 | 42.71143 | -73.33245 | 36860 ft | 490 kts | 97° |
| 2026-05-05 12:08 | 42.70440 | -73.24029 | 36868 ft | 490 kts | 97° |
| 2026-05-05 12:09 | 42.69729 | -73.14816 | 36866 ft | 490 kts | 97° |
| 2026-05-05 12:09 | 42.69010 | -73.05596 | 36867 ft | 491 kts | 97° |
| 2026-05-05 12:10 | 42.68287 | -72.96424 | 36867 ft | 491 kts | 97° |
| 2026-05-05 12:10 | 42.67554 | -72.87218 | 36752 ft | 485 kts | 97° |
| 2026-05-05 12:11 | 42.67193 | -72.82718 | 36264 ft | 477 kts | 97° |
| 2026-05-05 12:11 | 42.66831 | -72.78224 | 35299 ft | 480 kts | 97° |
| 2026-05-05 12:11 | 42.66465 | -72.73708 | 34444 ft | 481 kts | 97° |
| 2026-05-05 12:11 | 42.66097 | -72.69187 | 33555 ft | 480 kts | 97° |
| 2026-05-05 12:12 | 42.65852 | -72.66206 | 32856 ft | 480 kts | 97° |
| 2026-05-05 12:12 | 42.65481 | -72.61689 | 31718 ft | 482 kts | 97° |
| 2026-05-05 12:12 | 42.65106 | -72.57146 | 30528 ft | 485 kts | 97° |
| 2026-05-05 12:12 | 42.64728 | -72.52591 | 29189 ft | 487 kts | 97° |
| 2026-05-05 12:13 | 42.64347 | -72.48012 | 27742 ft | 488 kts | 97° |
| 2026-05-05 12:13 | 42.63964 | -72.43426 | 26334 ft | 489 kts | 98° |
| 2026-05-05 12:13 | 42.63583 | -72.38877 | 25462 ft | 479 kts | 98° |
| 2026-05-05 12:13 | 42.63210 | -72.34439 | 24644 ft | 468 kts | 98° |
| 2026-05-05 12:14 | 42.62841 | -72.30092 | 23823 ft | 459 kts | 99° |
| 2026-05-05 12:14 | 42.62476 | -72.25821 | 22915 ft | 451 kts | 99° |
| 2026-05-05 12:14 | 42.62118 | -72.21633 | 22083 ft | 443 kts | 99° |
| 2026-05-05 12:14 | 42.61764 | -72.17514 | 21298 ft | 436 kts | 99° |
| 2026-05-05 12:15 | 42.61412 | -72.13443 | 20519 ft | 433 kts | 99° |
| 2026-05-05 12:15 | 42.61058 | -72.09389 | 19736 ft | 431 kts | 100° |
| 2026-05-05 12:15 | 42.60706 | -72.05354 | 18961 ft | 428 kts | 100° |
| 2026-05-05 12:15 | 42.60356 | -72.01354 | 18160 ft | 425 kts | 100° |
| 2026-05-05 12:16 | 42.60008 | -71.97386 | 17270 ft | 422 kts | 100° |
| 2026-05-05 12:16 | 42.59660 | -71.93446 | 16422 ft | 418 kts | 100° |
| 2026-05-05 12:16 | 42.59314 | -71.89543 | 15572 ft | 415 kts | 100° |
| 2026-05-05 12:16 | 42.58969 | -71.85669 | 14750 ft | 412 kts | 99° |
| 2026-05-05 12:17 | 42.58588 | -71.81894 | 13910 ft | 409 kts | 102° |
| 2026-05-05 12:17 | 42.58039 | -71.78143 | 13260 ft | 399 kts | 105° |
| 2026-05-05 12:17 | 42.57478 | -71.74573 | 13080 ft | 376 kts | 105° |
| 2026-05-05 12:17 | 42.56944 | -71.71195 | 12927 ft | 358 kts | 105° |
| 2026-05-05 12:18 | 42.56423 | -71.67923 | 12794 ft | 354 kts | 105° |
| 2026-05-05 12:18 | 42.55901 | -71.64656 | 12664 ft | 353 kts | 105° |
| 2026-05-05 12:18 | 42.55390 | -71.61445 | 12280 ft | 346 kts | 105° |
| 2026-05-05 12:18 | 42.54841 | -71.58288 | 11804 ft | 341 kts | 108° |
| 2026-05-05 12:19 | 42.54209 | -71.55180 | 11526 ft | 344 kts | 109° |
| 2026-05-05 12:19 | 42.53557 | -71.52056 | 11226 ft | 340 kts | 109° |
| 2026-05-05 12:19 | 42.52930 | -71.49036 | 10988 ft | 326 kts | 110° |
| 2026-05-05 12:19 | 42.52323 | -71.46118 | 10654 ft | 319 kts | 110° |
| 2026-05-05 12:20 | 42.51723 | -71.43243 | 10338 ft | 317 kts | 110° |
| 2026-05-05 12:20 | 42.51124 | -71.40373 | 9950 ft | 316 kts | 110° |
| 2026-05-05 12:20 | 42.50535 | -71.37552 | 9498 ft | 314 kts | 110° |
| 2026-05-05 12:20 | 42.49952 | -71.34673 | 9154 ft | 311 kts | 109° |
| 2026-05-05 12:21 | 42.49423 | -71.32022 | 8851 ft | 310 kts | 109° |
| 2026-05-05 12:21 | 42.48858 | -71.29199 | 8522 ft | 309 kts | 109° |
| 2026-05-05 12:21 | 42.48298 | -71.26398 | 8216 ft | 307 kts | 109° |
| 2026-05-05 12:21 | 42.47748 | -71.23638 | 7988 ft | 297 kts | 109° |
| 2026-05-05 12:22 | 42.47217 | -71.20977 | 7727 ft | 289 kts | 110° |
| 2026-05-05 12:22 | 42.46695 | -71.18377 | 7417 ft | 284 kts | 109° |
| 2026-05-05 12:22 | 42.46431 | -71.15741 | 7114 ft | 284 kts | 89° |
| 2026-05-05 12:22 | 42.46965 | -71.13186 | 6853 ft | 282 kts | 67° |
| 2026-05-05 12:23 | 42.47816 | -71.10799 | 6557 ft | 279 kts | 63° |
| 2026-05-05 12:23 | 42.48698 | -71.08471 | 6288 ft | 277 kts | 63° |
| 2026-05-05 12:23 | 42.49799 | -71.06372 | 6045 ft | 272 kts | 39° |
| 2026-05-05 12:23 | 42.51415 | -71.05139 | 6017 ft | 265 kts | 18° |
| 2026-05-05 12:24 | 42.53142 | -71.04271 | 6012 ft | 264 kts | 14° |
| 2026-05-05 12:24 | 42.54878 | -71.03446 | 6012 ft | 265 kts | 15° |
| 2026-05-05 12:24 | 42.56614 | -71.02614 | 6008 ft | 265 kts | 15° |
| 2026-05-05 12:24 | 42.58389 | -71.01750 | 6025 ft | 282 kts | 15° |
| 2026-05-05 12:25 | 42.60214 | -71.00674 | 5906 ft | 288 kts | 27° |
| 2026-05-05 12:25 | 42.61727 | -70.98868 | 5447 ft | 293 kts | 54° |
| 2026-05-05 12:25 | 42.62409 | -70.96362 | 5245 ft | 278 kts | 89° |
| 2026-05-05 12:25 | 42.62074 | -70.93909 | 5080 ft | 256 kts | 122° |
| 2026-05-05 12:26 | 42.60972 | -70.92184 | 4930 ft | 235 kts | 146° |
| 2026-05-05 12:26 | 42.59667 | -70.90951 | 4709 ft | 223 kts | 161° |
| 2026-05-05 12:26 | 42.58233 | -70.90359 | 4437 ft | 210 kts | 181° |
| 2026-05-05 12:26 | 42.56830 | -70.90593 | 4191 ft | 200 kts | 201° |
| 2026-05-05 12:27 | 42.55542 | -70.91189 | 4078 ft | 191 kts | 204° |
| 2026-05-05 12:27 | 42.54324 | -70.91803 | 3954 ft | 185 kts | 205° |
| 2026-05-05 12:27 | 42.53137 | -70.92337 | 3871 ft | 175 kts | 197° |
| 2026-05-05 12:27 | 42.51969 | -70.92491 | 3751 ft | 163 kts | 190° |
| 2026-05-05 12:28 | 42.50860 | -70.92575 | 3519 ft | 158 kts | 190° |
| 2026-05-05 12:28 | 42.49784 | -70.92658 | 3257 ft | 155 kts | 192° |
| 2026-05-05 12:28 | 42.48725 | -70.92774 | 3024 ft | 150 kts | 190° |
| 2026-05-05 12:28 | 42.47649 | -70.92888 | 3016 ft | 152 kts | 198° |
| 2026-05-05 12:29 | 42.46666 | -70.93304 | 3009 ft | 149 kts | 205° |
| 2026-05-05 12:29 | 42.45689 | -70.93769 | 3023 ft | 150 kts | 198° |
| 2026-05-05 12:29 | 42.44628 | -70.93512 | 3001 ft | 169 kts | 157° |
| 2026-05-05 12:29 | 42.43889 | -70.92183 | 3014 ft | 192 kts | 115° |
| 2026-05-05 12:30 | 42.43892 | -70.90299 | 2990 ft | 212 kts | 74° |
| 2026-05-05 12:30 | 42.44718 | -70.88669 | 3005 ft | 213 kts | 37° |
| 2026-05-05 12:30 | 42.45985 | -70.87518 | 2797 ft | 221 kts | 30° |
| 2026-05-05 12:30 | 42.47232 | -70.86429 | 2988 ft | 216 kts | 30° |
| 2026-05-05 12:31 | 42.48529 | -70.85307 | 2921 ft | 222 kts | 30° |
| 2026-05-05 12:31 | 42.49882 | -70.84398 | 2792 ft | 212 kts | 5° |
| 2026-05-05 12:31 | 42.51267 | -70.84560 | 2848 ft | 194 kts | 328° |
| 2026-05-05 12:31 | 42.52215 | -70.85684 | 2806 ft | 177 kts | 290° |
| 2026-05-05 12:32 | 42.52371 | -70.87234 | 2799 ft | 164 kts | 252° |
| 2026-05-05 12:32 | 42.51714 | -70.88432 | 2793 ft | 163 kts | 214° |
| 2026-05-05 12:32 | 42.50697 | -70.89129 | 2811 ft | 162 kts | 216° |
| 2026-05-05 12:32 | 42.49865 | -70.90152 | 2729 ft | 163 kts | 228° |
| 2026-05-05 12:33 | 42.49126 | -70.91291 | 2567 ft | 158 kts | 230° |
| 2026-05-05 12:33 | 42.48422 | -70.92402 | 2417 ft | 153 kts | 230° |
| 2026-05-05 12:33 | 42.47741 | -70.93471 | 2112 ft | 148 kts | 230° |
| 2026-05-05 12:33 | 42.47075 | -70.94511 | 1792 ft | 142 kts | 230° |
| 2026-05-05 12:34 | 42.46363 | -70.95398 | 1725 ft | 139 kts | 221° |
| 2026-05-05 12:34 | 42.45523 | -70.96050 | 1715 ft | 140 kts | 211° |
| 2026-05-05 12:34 | 42.44621 | -70.96554 | 1583 ft | 140 kts | 206° |
| 2026-05-05 12:34 | 42.43718 | -70.97001 | 1394 ft | 134 kts | 205° |
| 2026-05-05 12:35 | 42.42868 | -70.97409 | 1195 ft | 125 kts | 205° |
| 2026-05-05 12:35 | 42.42088 | -70.97792 | 1034 ft | 114 kts | 205° |
| 2026-05-05 12:35 | 42.41342 | -70.98157 | 891 ft | 115 kts | 204° |
| 2026-05-05 12:35 | 42.40667 | -70.98734 | 649 ft | 117 kts | 220° |
| 2026-05-05 12:36 | 42.40004 | -70.99360 | 649 ft | 121 kts | 203° |
| 2026-05-05 12:36 | 42.39225 | -70.99766 | 421 ft | 118 kts | 199° |
| 2026-05-05 12:36 | 42.38455 | -71.00135 | 258 ft | 119 kts | 199° |
| 2026-05-05 12:36 | 42.37689 | -71.00519 | 53 ft | 114 kts | 198° |
| 2026-05-05 12:37 | 42.37037 | -71.00834 | 28 ft | 79 kts | 199° |
| 2026-05-05 12:37 | 42.36654 | -71.01019 | 31 ft | 48 kts | 199° |
| 2026-05-05 12:37 | 42.36407 | -71.01134 | 30 ft | 33 kts | 198° |
| 2026-05-05 12:37 | 42.36301 | -71.01203 | 30 ft | 7 kts | 248° |
| 2026-05-05 12:38 | 42.36316 | -71.01267 | 29 ft | 8 kts | 297° |
| 2026-05-05 12:38 | 42.36313 | -71.01334 | 29 ft | 7 kts | 230° |
| 2026-05-05 12:38 | 42.36268 | -71.01365 | 29 ft | 8 kts | 200° |
| 2026-05-05 12:38 | 42.36190 | -71.01398 | 30 ft | 14 kts | 197° |
| 2026-05-05 12:39 | 42.36092 | -71.01444 | 30 ft | 15 kts | 200° |
| 2026-05-05 12:39 | 42.35987 | -71.01497 | 30 ft | 17 kts | 200° |
| 2026-05-05 12:39 | 42.35878 | -71.01551 | 30 ft | 16 kts | 200° |
| 2026-05-05 12:39 | 42.35818 | -71.01631 | 30 ft | 11 kts | 273° |
| 2026-05-05 12:40 | 42.35834 | -71.01744 | 30 ft | 13 kts | 283° |
| 2026-05-05 12:40 | 42.35861 | -71.01869 | 30 ft | 15 kts | 294° |
| 2026-05-05 12:40 | 42.35908 | -71.01985 | 30 ft | 7 kts | 304° |
| 2026-05-05 12:40 | 42.35945 | -71.02063 | 30 ft | 13 kts | 301° |
| 2026-05-05 12:41 | 42.35982 | -71.02166 | 30 ft | 11 kts | 274° |
| 2026-05-05 12:41 | 42.35951 | -71.02212 | 29 ft | 5 kts | 211° |
| 2026-05-05 12:41 | 42.35931 | -71.02228 | 30 ft | 0 kts | 210° |
| 2026-05-05 12:43 | 42.35931 | -71.02227 | 30 ft | 0 kts | 210° |